Tisbury, United Kingdom
Current Conditions -  °F | °C
As of 2:50 PM on Saturday 20 Dec 2014 (Local Time) from EGDM Reporting Station
Broken Clouds Broken Clouds  
Wind Chill: 40°   Ceiling: 4100
Heat Index: 46°   Visibility: 6mi
Dew Point: 39°   Wind: 16mph
Humidity: 76%   Direction: 270°W
Pressure: 30.36"   Gusts: NA
Location:  51.06°N, 2.08°W
Report Text: EGDM 201450Z AUTO 27014KT 9999 BKN041/// 08/04 Q1028
Loading
Personal Weather Stations






























Interactive Weather Map New forecast layout! Learn more

10-Day Weather Forecast

Advertisements
Track Severe Weather on mobile